Time;durP1;ratioP1;P1;durP2;ratioP2;P2;SDS_P1;SDS_P2;PMS_P1;PMS_P2;Temp;Humidity;BMP_temperature;BMP_pressure;BME280_temperature;BME280_humidity;BME280_pressure;Samples;Min_cycle;Max_cycle;Signal;HPM_P1;HPM_P2
2024/01/31 05:30:27;;;;;;;0.10;0.10;;;6.20;80.80;;;;;;6125131;23;20264;-77
2024/01/31 05:32:52;;;;;;;0.10;0.10;;;6.30;80.60;;;;;;6126120;23;20458;-77
2024/01/31 05:35:20;;;;;;;0.10;0.10;;;6.30;80.70;;;;;;6159605;23;20001;-77
2024/01/31 05:37:46;;;;;;;0.10;0.10;;;6.30;80.60;;;;;;6159796;23;20782;-77
2024/01/31 05:40:16;;;;;;;0.10;0.10;;;6.30;80.60;;;;;;6133288;23;20013;-79
2024/01/31 05:42:42;;;;;;;0.10;0.10;;;6.30;80.70;;;;;;6133686;23;20522;-77
2024/01/31 05:45:08;;;;;;;0.10;0.10;;;6.30;80.60;;;;;;6158941;23;20058;-77
2024/01/31 05:47:34;;;;;;;0.10;0.10;;;6.30;80.60;;;;;;6133353;23;20434;-79
2024/01/31 05:49:59;;;;;;;0.10;0.10;;;6.30;80.70;;;;;;6133725;23;20009;-79
2024/01/31 05:52:25;;;;;;;0.10;0.10;;;6.20;80.70;;;;;;6160249;23;20004;-77
2024/01/31 05:54:51;;;;;;;0.10;0.10;;;6.20;80.90;;;;;;6133468;23;20076;-79
2024/01/31 05:57:16;;;;;;;0.10;0.10;;;6.10;81.00;;;;;;6160151;23;20030;-77
2024/01/31 05:59:42;;;;;;;0.10;0.10;;;6.00;81.00;;;;;;6159860;23;20002;-78
2024/01/31 06:02:08;;;;;;;0.10;0.10;;;6.00;81.00;;;;;;6159387;23;20009;-75
2024/01/31 06:04:33;;;;;;;0.10;0.10;;;5.90;81.00;;;;;;6159637;23;20429;-78
2024/01/31 06:06:59;;;;;;;0.13;0.13;;;5.90;81.20;;;;;;6133497;23;20406;-77
2024/01/31 06:09:26;;;;;;;0.20;0.20;;;5.80;81.20;;;;;;6160211;23;20005;-79
2024/01/31 06:11:52;;;;;;;0.10;0.10;;;5.80;81.30;;;;;;6155090;23;20025;-79
2024/01/31 06:14:17;;;;;;;0.20;0.20;;;5.80;81.40;;;;;;6133599;23;20005;-81
2024/01/31 06:16:43;;;;;;;0.10;0.10;;;5.80;81.50;;;;;;6133742;23;20354;-81
2024/01/31 06:19:09;;;;;;;0.10;0.10;;;5.90;81.30;;;;;;6159076;23;20493;-84
2024/01/31 06:21:35;;;;;;;0.10;0.10;;;5.90;81.10;;;;;;6159614;23;20509;-86
2024/01/31 06:24:00;;;;;;;0.10;0.10;;;6.00;81.10;;;;;;6159156;23;20017;-86
2024/01/31 06:26:28;;;;;;;0.10;0.10;;;5.90;81.20;;;;;;6158748;23;20729;-85
2024/01/31 06:28:54;;;;;;;0.20;0.20;;;6.00;81.40;;;;;;6158884;23;20410;-84
2024/01/31 06:31:28;;;;;;;0.10;0.10;;;6.00;81.20;;;;;;6157416;23;20102;-83
2024/01/31 06:33:54;;;;;;;0.10;0.10;;;6.00;81.30;;;;;;6157209;23;20084;-83
2024/01/31 06:36:20;;;;;;;0.10;0.10;;;6.10;81.30;;;;;;6157775;23;20337;-83
2024/01/31 06:38:46;;;;;;;0.10;0.10;;;6.20;81.30;;;;;;6132934;23;20030;-84
2024/01/31 06:41:16;;;;;;;0.10;0.10;;;6.20;81.20;;;;;;6158673;23;20029;-83
2024/01/31 06:43:41;;;;;;;0.10;0.10;;;6.30;81.10;;;;;;6159222;23;20442;-83
2024/01/31 06:46:07;;;;;;;0.10;0.10;;;6.20;81.20;;;;;;6159051;23;20033;-81
2024/01/31 06:48:33;;;;;;;0.20;0.20;;;6.20;81.50;;;;;;6133137;23;20001;-84
2024/01/31 06:50:59;;;;;;;0.20;0.20;;;6.20;81.40;;;;;;6158607;23;20009;-84
2024/01/31 06:53:25;;;;;;;0.10;0.10;;;6.10;81.60;;;;;;6159415;23;20002;-81
2024/01/31 06:55:51;;;;;;;0.10;0.10;;;6.10;81.90;;;;;;6132940;23;20460;-79
2024/01/31 06:58:17;;;;;;;0.10;0.10;;;6.20;81.80;;;;;;6132261;23;20345;-79
2024/01/31 07:00:42;;;;;;;0.10;0.10;;;6.20;81.50;;;;;;6132940;23;20044;-78
2024/01/31 07:03:08;;;;;;;0.13;0.13;;;6.20;81.60;;;;;;6157712;23;20080;-89
2024/01/31 07:05:34;;;;;;;0.10;0.10;;;6.20;81.50;;;;;;6131232;23;20449;-89
2024/01/31 07:08:00;;;;;;;0.10;0.10;;;6.10;81.50;;;;;;6132671;23;20001;-89
2024/01/31 07:10:26;;;;;;;0.10;0.10;;;6.10;81.50;;;;;;6133098;23;20029;-88
2024/01/31 07:12:55;;;;;;;0.10;0.10;;;6.00;81.50;;;;;;6158978;23;20504;-88
2024/01/31 07:15:21;;;;;;;0.10;0.10;;;5.90;81.60;;;;;;6158764;23;20084;-88
2024/01/31 07:17:47;;;;;;;0.10;0.10;;;5.90;81.60;;;;;;6158841;23;20015;-88
2024/01/31 07:20:13;;;;;;;0.10;0.10;;;5.80;81.50;;;;;;6132561;23;20014;-88
2024/01/31 07:22:38;;;;;;;0.10;0.10;;;5.80;81.60;;;;;;6133290;23;20005;-88
2024/01/31 07:25:04;;;;;;;0.10;0.10;;;5.70;81.80;;;;;;6132641;23;20422;-89
2024/01/31 07:27:30;;;;;;;0.10;0.10;;;5.70;81.90;;;;;;6158605;23;20009;-88
2024/01/31 07:29:55;;;;;;;0.10;0.10;;;5.70;81.90;;;;;;6133003;23;20033;-89
2024/01/31 07:32:22;;;;;;;0.10;0.10;;;5.70;81.70;;;;;;6132865;23;20021;-88
2024/01/31 07:34:48;;;;;;;0.10;0.10;;;5.70;81.70;;;;;;6133095;23;20005;-89
2024/01/31 07:37:13;;;;;;;0.10;0.10;;;5.70;81.60;;;;;;6158641;23;20004;-88
2024/01/31 07:39:39;;;;;;;0.10;0.10;;;5.60;81.50;;;;;;6158697;23;20051;-88
2024/01/31 07:42:05;;;;;;;0.10;0.10;;;5.60;81.60;;;;;;6159391;23;20434;-87
2024/01/31 07:44:30;;;;;;;0.20;0.20;;;5.60;81.70;;;;;;6158663;23;20068;-88
2024/01/31 07:46:57;;;;;;;0.17;0.17;;;5.50;81.40;;;;;;6159021;23;20018;-88
2024/01/31 07:49:23;;;;;;;0.10;0.10;;;5.40;81.50;;;;;;6132561;23;20012;-89
2024/01/31 07:51:52;;;;;;;0.20;0.20;;;5.40;81.70;;;;;;6133067;23;20347;-89
2024/01/31 07:54:18;;;;;;;0.10;0.10;;;5.40;81.80;;;;;;6159018;23;20374;-88
2024/01/31 07:56:44;;;;;;;0.10;0.10;;;5.30;81.80;;;;;;6132679;23;20010;-89
2024/01/31 07:59:10;;;;;;;0.17;0.17;;;5.30;81.90;;;;;;6132462;23;20013;-88
2024/01/31 08:01:35;;;;;;;0.10;0.10;;;5.30;81.60;;;;;;6132589;23;20006;-88
2024/01/31 08:04:01;;;;;;;0.10;0.10;;;5.30;81.70;;;;;;6132529;23;20036;-89
2024/01/31 08:06:27;;;;;;;0.10;0.10;;;5.30;81.80;;;;;;6133084;23;20005;-89
2024/01/31 08:08:52;;;;;;;0.10;0.10;;;5.30;81.90;;;;;;6158451;23;20024;-87
2024/01/31 08:11:18;;;;;;;0.20;0.20;;;5.30;81.60;;;;;;6158676;23;20013;-88
2024/01/31 08:13:44;;;;;;;0.10;0.10;;;5.30;81.60;;;;;;6132766;23;20136;-88
2024/01/31 08:16:14;;;;;;;0.10;0.10;;;5.30;81.70;;;;;;6158637;23;20001;-88
2024/01/31 08:18:40;;;;;;;0.20;0.13;;;5.30;81.80;;;;;;6132866;23;20009;-89
2024/01/31 08:21:06;;;;;;;0.10;0.10;;;5.40;81.90;;;;;;6158683;23;20036;-88
2024/01/31 08:23:32;;;;;;;0.20;0.20;;;5.40;82.00;;;;;;6158625;23;19998;-88
2024/01/31 08:25:58;;;;;;;0.10;0.10;;;5.50;82.00;;;;;;6159158;23;20004;-88
2024/01/31 08:28:23;;;;;;;0.20;0.20;;;5.50;82.10;;;;;;6158872;23;20001;-87
2024/01/31 08:30:49;;;;;;;0.10;0.10;;;5.60;82.00;;;;;;6159071;23;20537;-88
2024/01/31 08:33:14;;;;;;;0.10;0.10;;;5.60;82.10;;;;;;6132590;23;20010;-88
2024/01/31 08:35:40;;;;;;;0.20;0.20;;;5.70;82.40;;;;;;6158388;23;20005;-88
2024/01/31 08:38:06;;;;;;;0.10;0.10;;;5.70;82.20;;;;;;6132741;23;20338;-89
2024/01/31 08:40:31;;;;;;;0.10;0.10;;;5.80;82.00;;;;;;6159051;23;20001;-89
2024/01/31 08:42:58;;;;;;;0.20;0.20;;;5.90;81.80;;;;;;6132531;23;20084;-88
2024/01/31 08:45:26;;;;;;;0.20;0.20;;;6.00;81.90;;;;;;6133302;23;20460;-89
2024/01/31 08:47:52;;;;;;;0.20;0.20;;;6.10;81.70;;;;;;6159047;23;20053;-88
2024/01/31 08:50:18;;;;;;;0.20;0.20;;;6.20;81.60;;;;;;6132501;23;20010;-88
2024/01/31 08:52:44;;;;;;;0.20;0.20;;;6.20;81.90;;;;;;6133028;23;20005;-89
2024/01/31 08:55:09;;;;;;;0.10;0.10;;;6.30;82.10;;;;;;6158829;23;20006;-89
2024/01/31 08:57:35;;;;;;;0.20;0.20;;;6.30;82.20;;;;;;6132798;23;20016;-88
2024/01/31 09:00:04;;;;;;;0.20;0.20;;;6.50;81.70;;;;;;6158711;23;20008;-88
2024/01/31 09:02:29;;;;;;;0.20;0.20;;;6.60;81.90;;;;;;6159086;23;20377;-88
2024/01/31 09:04:55;;;;;;;0.20;0.20;;;6.70;81.80;;;;;;6158785;23;20002;-88
2024/01/31 09:07:21;;;;;;;0.20;0.20;;;6.80;81.50;;;;;;6158903;23;20073;-88
2024/01/31 09:09:46;;;;;;;0.20;0.20;;;7.00;81.50;;;;;;6132938;23;20005;-89
2024/01/31 09:12:12;;;;;;;0.25;0.25;;;7.20;81.00;;;;;;6132915;23;20009;-89
2024/01/31 09:14:38;;;;;;;0.20;0.20;;;7.40;80.80;;;;;;6158589;23;20394;-88
2024/01/31 09:17:11;;;;;;;0.20;0.20;;;7.50;80.30;;;;;;6159271;23;20087;-89
2024/01/31 09:19:37;;;;;;;0.20;0.20;;;7.70;80.40;;;;;;6158872;23;20013;-89
2024/01/31 09:22:03;;;;;;;0.40;0.40;;;7.80;80.10;;;;;;6134834;23;20349;-88
2024/01/31 09:24:33;;;;;;;0.40;0.40;;;8.20;78.90;;;;;;6134427;23;20092;-89
2024/01/31 09:27:02;;;;;;;3.30;3.10;;;8.80;77.60;;;;;;6134912;23;20564;-89
2024/01/31 09:29:33;;;;;;;4.93;4.63;;;9.60;75.60;;;;;;6160833;23;20001;-88
2024/01/31 09:32:19;;;;;;;2.50;2.30;;;10.60;73.10;;;;;;6134440;23;20022;-88
2024/01/31 09:35:00;;;;;;;4.50;4.20;;;11.80;70.00;;;;;;6133487;23;20013;-88
2024/01/31 09:38:25;;;;;;;;;;;;;;;;;;;;;
2024/01/31 09:41:35;;;;;;;3.67;3.47;;;13.50;63.00;;;;;;6141691;23;20413;-89
2024/01/31 09:44:34;;;;;;;2.80;2.60;;;13.60;62.20;;;;;;6134184;23;20006;-87
2024/01/31 09:47:29;;;;;;;;;;;;;;;;;;;;;
2024/01/31 09:50:13;;;;;;;2.60;2.40;;;13.30;61.40;;;;;;6160467;23;20051;-87
2024/01/31 09:53:20;;;;;;;;;;;;;;;;;;;;;
2024/01/31 09:55:55;;;;;;;0.80;0.80;;;12.90;62.50;;;;;;6160226;23;20096;-87
2024/01/31 09:58:50;;;;;;;0.63;0.63;;;12.50;63.70;;;;;;6134041;23;20013;-86
2024/01/31 10:01:21;;;;;;;0.30;0.30;;;12.00;63.60;;;;;;6160197;23;20009;-87
2024/01/31 10:03:49;;;;;;;0.20;0.20;;;11.50;65.00;;;;;;6133607;23;20009;-87
2024/01/31 10:06:15;;;;;;;0.20;0.20;;;11.30;65.70;;;;;;6160459;23;20006;-87
2024/01/31 10:08:41;;;;;;;0.20;0.20;;;11.00;65.70;;;;;;6134285;23;20068;-87
2024/01/31 10:11:09;;;;;;;0.10;0.10;;;10.80;66.80;;;;;;6134216;23;20020;-87
2024/01/31 10:13:35;;;;;;;0.10;0.10;;;10.80;67.10;;;;;;6134046;23;20426;-87
2024/01/31 10:16:01;;;;;;;0.20;0.20;;;10.70;67.90;;;;;;6134165;23;20033;-90
2024/01/31 10:18:28;;;;;;;0.10;0.10;;;10.60;69.00;;;;;;6160005;23;20104;-90
2024/01/31 10:21:03;;;;;;;0.10;0.10;;;10.30;69.40;;;;;;6134240;23;20009;-87
2024/01/31 10:23:29;;;;;;;0.10;0.10;;;10.20;69.20;;;;;;6133686;23;20013;-87
2024/01/31 10:25:55;;;;;;;0.10;0.10;;;10.10;69.50;;;;;;6160234;23;20449;-89
2024/01/31 10:28:21;;;;;;;0.13;0.13;;;10.00;70.10;;;;;;6159491;23;20006;-89
2024/01/31 10:30:48;;;;;;;0.10;0.10;;;10.10;70.80;;;;;;6133697;23;20025;-89
2024/01/31 10:33:16;;;;;;;0.10;0.10;;;10.10;71.00;;;;;;6133516;23;20012;-88
2024/01/31 10:35:43;;;;;;;0.10;0.10;;;10.00;71.00;;;;;;6160284;23;20001;-89
2024/01/31 10:38:12;;;;;;;0.10;0.10;;;10.00;71.20;;;;;;6133663;23;20088;-89
2024/01/31 10:40:41;;;;;;;0.10;0.10;;;10.00;71.30;;;;;;6160270;23;20437;-89
2024/01/31 10:43:09;;;;;;;0.10;0.10;;;10.00;71.90;;;;;;6133827;23;20006;-89
2024/01/31 10:45:35;;;;;;;0.10;0.10;;;10.10;72.00;;;;;;6160630;23;19998;-89
2024/01/31 10:48:02;;;;;;;0.10;0.10;;;10.10;72.10;;;;;;6133830;23;20011;-88
2024/01/31 10:50:32;;;;;;;0.10;0.10;;;10.10;72.30;;;;;;6133534;23;20092;-90
2024/01/31 10:52:59;;;;;;;0.10;0.10;;;10.10;72.90;;;;;;6134093;23;20006;-89
2024/01/31 10:55:27;;;;;;;0.10;0.10;;;10.20;73.00;;;;;;6133806;23;20442;-89
2024/01/31 10:57:54;;;;;;;0.20;0.20;;;10.10;73.10;;;;;;6159555;23;20086;-89
2024/01/31 11:00:32;;;;;;;0.10;0.10;;;10.20;73.20;;;;;;6133559;23;20096;-89
2024/01/31 11:02:58;;;;;;;0.10;0.10;;;10.20;73.40;;;;;;6133610;23;20005;-89
2024/01/31 11:05:31;;;;;;;0.10;0.10;;;10.30;73.30;;;;;;6159500;23;20004;-88
2024/01/31 11:07:58;;;;;;;0.10;0.10;;;10.30;73.40;;;;;;6133990;23;20473;-88
2024/01/31 11:10:27;;;;;;;0.10;0.10;;;10.40;73.30;;;;;;6159566;23;20505;-89
2024/01/31 11:13:04;;;;;;;0.10;0.10;;;10.50;73.10;;;;;;6133669;23;20457;-90
2024/01/31 11:15:42;;;;;;;0.10;0.10;;;10.50;73.20;;;;;;6134086;23;20036;-89
2024/01/31 11:18:11;;;;;;;0.10;0.10;;;10.60;73.30;;;;;;6133149;23;20061;-89
2024/01/31 11:20:50;;;;;;;0.10;0.10;;;10.60;73.30;;;;;;6132957;23;20016;-89
2024/01/31 11:23:20;;;;;;;0.10;0.10;;;10.70;73.50;;;;;;6133826;23;20456;-89
2024/01/31 11:25:46;;;;;;;0.10;0.10;;;10.70;73.20;;;;;;6159448;23;20006;-90
2024/01/31 11:28:16;;;;;;;0.10;0.10;;;10.80;73.10;;;;;;6133328;23;20057;-89
2024/01/31 11:30:42;;;;;;;0.10;0.10;;;10.80;72.50;;;;;;6159219;23;20014;-89
2024/01/31 11:33:08;;;;;;;0.10;0.10;;;10.80;73.40;;;;;;6133352;23;20096;-89
2024/01/31 11:35:34;;;;;;;0.10;0.10;;;10.80;72.90;;;;;;6133176;23;20009;-89
2024/01/31 11:38:00;;;;;;;0.10;0.10;;;10.90;72.60;;;;;;6133662;23;20040;-89
2024/01/31 11:40:26;;;;;;;0.10;0.10;;;10.90;72.00;;;;;;6159592;23;20037;-89
2024/01/31 11:42:59;;;;;;;0.10;0.10;;;10.90;71.90;;;;;;6159489;23;20002;-88
2024/01/31 11:45:25;;;;;;;0.10;0.10;;;10.90;71.20;;;;;;6133087;23;20032;-89
2024/01/31 11:47:55;;;;;;;0.10;0.10;;;11.00;71.70;;;;;;6133575;23;20085;-89
2024/01/31 11:50:22;;;;;;;0.10;0.10;;;11.00;71.00;;;;;;6158955;23;20032;-89
2024/01/31 11:52:48;;;;;;;0.10;0.10;;;11.10;71.50;;;;;;6133099;23;20005;-89
2024/01/31 11:55:28;;;;;;;0.10;0.10;;;11.20;71.70;;;;;;6133125;23;20441;-89
2024/01/31 11:58:03;;;;;;;0.10;0.10;;;11.20;71.60;;;;;;6158913;23;20004;-88
2024/01/31 12:00:29;;;;;;;0.10;0.10;;;11.30;71.40;;;;;;6133470;23;20013;-89
2024/01/31 12:02:56;;;;;;;0.10;0.10;;;11.30;70.70;;;;;;6133379;23;20033;-89
2024/01/31 12:05:22;;;;;;;0.10;0.10;;;11.40;70.50;;;;;;6133143;23;20011;-88
2024/01/31 12:07:58;;;;;;;0.10;0.10;;;11.40;70.60;;;;;;6133162;23;20006;-88
2024/01/31 12:10:28;;;;;;;0.10;0.10;;;11.50;70.90;;;;;;6133591;23;20013;-88
2024/01/31 12:13:00;;;;;;;0.10;0.10;;;11.60;70.70;;;;;;6132547;23;20089;-88
2024/01/31 12:15:26;;;;;;;0.10;0.10;;;11.60;69.80;;;;;;6133390;23;20033;-89
2024/01/31 12:17:53;;;;;;;0.10;0.10;;;11.70;70.10;;;;;;6133099;23;20009;-88
2024/01/31 12:20:19;;;;;;;0.10;0.10;;;11.80;70.30;;;;;;6158721;23;20002;-88
2024/01/31 12:22:45;;;;;;;0.10;0.10;;;11.80;70.00;;;;;;6132795;23;20032;-89
2024/01/31 12:25:11;;;;;;;0.10;0.10;;;11.80;70.10;;;;;;6159273;23;20008;-89
2024/01/31 12:27:37;;;;;;;0.10;0.10;;;11.90;69.60;;;;;;6132918;23;20002;-89
2024/01/31 12:30:04;;;;;;;0.10;0.10;;;12.00;68.90;;;;;;6133035;23;20006;-89
2024/01/31 12:32:31;;;;;;;0.10;0.10;;;12.20;69.10;;;;;;6158225;23;20017;-89
2024/01/31 12:34:57;;;;;;;0.10;0.10;;;12.20;68.90;;;;;;6133283;23;20040;-90
2024/01/31 12:37:23;;;;;;;0.15;0.15;;;12.40;69.20;;;;;;6133606;23;20019;-89
2024/01/31 12:39:48;;;;;;;0.10;0.10;;;12.40;68.70;;;;;;6159189;23;19998;-90
2024/01/31 12:42:14;;;;;;;0.10;0.10;;;12.40;67.80;;;;;;6158898;23;20027;-90
2024/01/31 12:44:40;;;;;;;0.10;0.10;;;12.50;68.30;;;;;;6133391;23;20006;-89
2024/01/31 12:47:06;;;;;;;0.10;0.10;;;12.50;68.60;;;;;;6133074;23;20128;-90
2024/01/31 12:49:39;;;;;;;0.15;0.10;;;12.50;68.80;;;;;;6133047;23;20005;-89
2024/01/31 12:52:05;;;;;;;0.10;0.10;;;12.50;69.10;;;;;;6133455;23;20152;-90
2024/01/31 12:54:31;;;;;;;0.10;0.10;;;12.60;68.80;;;;;;6133905;23;20341;-89
2024/01/31 12:56:57;;;;;;;0.10;0.10;;;12.70;68.90;;;;;;6134970;23;20009;-88
2024/01/31 12:59:27;;;;;;;0.10;0.10;;;12.70;68.90;;;;;;6160597;23;20008;-85
2024/01/31 13:01:52;;;;;;;0.10;0.10;;;12.60;68.80;;;;;;6160505;23;20005;-83
2024/01/31 13:04:18;;;;;;;0.10;0.10;;;12.60;68.90;;;;;;6153549;23;20002;-83
2024/01/31 13:06:44;;;;;;;0.10;0.10;;;12.60;68.90;;;;;;6159321;23;20005;-84
2024/01/31 13:09:09;;;;;;;0.10;0.10;;;12.60;69.10;;;;;;6134338;23;20001;-84
2024/01/31 13:11:36;;;;;;;0.10;0.10;;;12.70;68.90;;;;;;6160382;23;20041;-84
2024/01/31 13:14:02;;;;;;;0.10;0.10;;;12.70;69.60;;;;;;6160380;23;20006;-85
2024/01/31 13:16:28;;;;;;;0.10;0.10;;;12.70;69.70;;;;;;6134062;23;20017;-84
2024/01/31 13:18:53;;;;;;;0.10;0.10;;;12.70;69.20;;;;;;6133668;23;20013;-84
2024/01/31 13:21:19;;;;;;;0.10;0.10;;;12.70;68.80;;;;;;6155887;23;20430;-88
2024/01/31 13:23:45;;;;;;;0.10;0.10;;;12.70;68.80;;;;;;6157529;23;20002;-85
2024/01/31 13:26:10;;;;;;;0.10;0.10;;;12.80;68.70;;;;;;6159207;23;20001;-84
2024/01/31 13:28:36;;;;;;;0.10;0.10;;;12.70;68.00;;;;;;6132691;23;20036;-84
2024/01/31 13:31:05;;;;;;;0.10;0.10;;;12.70;68.60;;;;;;6159496;23;20025;-84
2024/01/31 13:33:30;;;;;;;0.10;0.10;;;12.80;68.40;;;;;;6159300;23;20420;-84
2024/01/31 13:35:56;;;;;;;0.10;0.10;;;12.80;68.20;;;;;;6133341;23;20088;-84
2024/01/31 13:38:22;;;;;;;0.10;0.10;;;12.80;68.70;;;;;;6159214;23;20008;-85
2024/01/31 13:40:48;;;;;;;0.10;0.10;;;12.80;68.40;;;;;;6133726;23;20009;-84
2024/01/31 13:43:15;;;;;;;0.10;0.10;;;12.80;68.30;;;;;;6159366;23;20005;-83
2024/01/31 13:45:40;;;;;;;0.10;0.10;;;12.90;68.50;;;;;;6133973;23;20028;-84
2024/01/31 13:48:06;;;;;;;0.10;0.10;;;12.90;68.40;;;;;;6158637;23;20005;-84
2024/01/31 13:50:32;;;;;;;0.10;0.10;;;12.90;68.40;;;;;;6159251;23;20006;-84
2024/01/31 13:52:58;;;;;;;0.10;0.10;;;12.90;67.90;;;;;;6159305;23;20036;-84
2024/01/31 13:55:23;;;;;;;0.10;0.10;;;12.90;68.20;;;;;;6158678;23;20008;-84
2024/01/31 13:57:49;;;;;;;0.08;0.08;;;13.00;68.40;;;;;;6159328;23;20025;-84
2024/01/31 14:00:15;;;;;;;0.00;0.00;;;13.00;68.40;;;;;;6159225;23;20006;-83
2024/01/31 14:02:41;;;;;;;0.10;0.10;;;13.00;68.70;;;;;;6159367;23;20008;-83
2024/01/31 14:05:07;;;;;;;0.10;0.10;;;13.10;68.40;;;;;;6133075;23;20033;-83
2024/01/31 14:07:32;;;;;;;0.10;0.10;;;13.10;68.30;;;;;;6132863;23;20012;-83
2024/01/31 14:09:58;;;;;;;0.10;0.10;;;13.10;68.40;;;;;;6159525;23;20002;-83
2024/01/31 14:12:24;;;;;;;0.10;0.10;;;13.10;68.20;;;;;;6158773;23;20005;-83
2024/01/31 14:14:50;;;;;;;0.03;0.03;;;13.20;68.70;;;;;;6133385;23;20016;-83
2024/01/31 14:17:15;;;;;;;0.00;0.00;;;13.20;68.40;;;;;;6159740;23;20033;-83
2024/01/31 14:19:41;;;;;;;0.10;0.10;;;13.10;68.50;;;;;;6158625;23;20431;-83
2024/01/31 14:22:07;;;;;;;0.10;0.10;;;13.10;68.80;;;;;;6132961;23;20006;-83
2024/01/31 14:24:32;;;;;;;0.10;0.10;;;13.10;68.60;;;;;;6159375;23;19998;-84
2024/01/31 14:26:58;;;;;;;0.10;0.10;;;13.20;68.80;;;;;;6132915;23;20009;-83
2024/01/31 14:29:26;;;;;;;0.10;0.10;;;13.20;68.80;;;;;;6158342;23;20001;-84
2024/01/31 14:31:55;;;;;;;0.10;0.10;;;13.20;68.60;;;;;;6132236;23;20100;-83
2024/01/31 14:34:20;;;;;;;0.10;0.10;;;13.20;69.00;;;;;;6133058;23;20010;-83
2024/01/31 14:36:46;;;;;;;0.10;0.10;;;13.30;68.90;;;;;;6158700;23;20020;-82
2024/01/31 14:39:12;;;;;;;0.10;0.10;;;13.30;68.70;;;;;;6158290;23;20006;-83
2024/01/31 14:41:42;;;;;;;0.10;0.10;;;13.30;68.80;;;;;;6158897;23;20315;-83
2024/01/31 14:44:09;;;;;;;0.10;0.10;;;13.30;68.70;;;;;;6158854;23;20006;-83
2024/01/31 14:46:34;;;;;;;0.00;0.00;;;13.30;68.60;;;;;;6158547;23;19997;-83
2024/01/31 14:49:00;;;;;;;0.10;0.10;;;13.30;68.70;;;;;;6158763;23;20000;-82
2024/01/31 14:51:26;;;;;;;0.00;0.00;;;13.30;68.80;;;;;;6158692;23;20072;-82
2024/01/31 14:53:52;;;;;;;0.05;0.05;;;13.30;68.60;;;;;;6132610;23;20064;-82
2024/01/31 14:56:20;;;;;;;0.10;0.10;;;13.20;69.20;;;;;;6158992;23;20025;-82
2024/01/31 14:58:46;;;;;;;0.10;0.10;;;13.00;69.30;;;;;;6132549;23;20457;-82
2024/01/31 15:01:12;;;;;;;0.10;0.10;;;13.00;69.80;;;;;;6132456;23;20013;-82
2024/01/31 15:03:38;;;;;;;0.10;0.10;;;13.00;70.50;;;;;;6158540;23;20011;-82
2024/01/31 15:06:11;;;;;;;0.10;0.10;;;13.10;70.20;;;;;;6157723;23;19998;-82
2024/01/31 15:08:36;;;;;;;;;;;13.10;70.60;;;;;;6133329;23;20005;-83
2024/01/31 15:11:03;;;;;;;0.10;0.10;;;13.20;70.70;;;;;;6159020;23;19938;-82
2024/01/31 15:14:24;;;;;;;0.10;0.10;;;13.20;70.50;;;;;;6132281;23;20006;-82
2024/01/31 15:16:50;;;;;;;0.10;0.10;;;13.30;70.40;;;;;;6131820;23;20096;-84
2024/01/31 15:19:16;;;;;;;0.10;0.10;;;13.30;70.50;;;;;;6130818;23;20009;-85
2024/01/31 15:21:41;;;;;;;0.00;0.00;;;13.30;70.30;;;;;;6158137;23;20001;-85
2024/01/31 15:24:07;;;;;;;0.10;0.10;;;13.30;70.40;;;;;;6159105;23;20406;-85
2024/01/31 15:26:33;;;;;;;0.00;0.00;;;13.20;70.50;;;;;;6158735;23;20022;-85
2024/01/31 15:29:00;;;;;;;0.08;0.08;;;13.20;70.60;;;;;;6132209;23;20101;-85
2024/01/31 15:31:26;;;;;;;0.00;0.00;;;13.20;70.60;;;;;;6132064;23;20029;-85
2024/01/31 15:33:51;;;;;;;0.10;0.10;;;13.20;71.00;;;;;;6159163;23;20059;-81
2024/01/31 15:36:22;;;;;;;0.00;0.00;;;13.20;71.20;;;;;;6133283;23;20020;-86
2024/01/31 15:38:48;;;;;;;0.10;0.10;;;13.10;71.40;;;;;;6131712;23;20006;-85
2024/01/31 15:41:14;;;;;;;0.10;0.10;;;13.10;71.60;;;;;;6131851;23;20006;-85
2024/01/31 15:43:43;;;;;;;0.10;0.10;;;13.10;71.60;;;;;;6131801;23;20005;-85
2024/01/31 15:46:09;;;;;;;0.10;0.10;;;13.10;71.70;;;;;;6132331;23;20543;-85
2024/01/31 15:48:35;;;;;;;0.10;0.10;;;13.00;71.60;;;;;;6132025;23;20005;-86
2024/01/31 15:51:01;;;;;;;0.10;0.10;;;13.00;71.90;;;;;;6132345;23;20513;-85
2024/01/31 15:53:26;;;;;;;0.10;0.10;;;13.00;71.90;;;;;;6158347;23;20315;-85
2024/01/31 15:55:52;;;;;;;0.00;0.00;;;13.00;72.10;;;;;;6158253;23;20001;-85
2024/01/31 15:58:17;;;;;;;0.00;0.00;;;13.00;72.00;;;;;;6132263;23;20084;-86
2024/01/31 16:00:43;;;;;;;0.10;0.10;;;13.00;72.30;;;;;;6158293;23;20326;-85
2024/01/31 16:03:09;;;;;;;0.10;0.10;;;13.00;72.20;;;;;;6131775;23;20363;-85
2024/01/31 16:05:34;;;;;;;0.00;0.00;;;13.00;72.30;;;;;;6157626;23;19997;-86
2024/01/31 16:08:00;;;;;;;0.10;0.10;;;13.00;72.50;;;;;;6158507;23;20001;-85
2024/01/31 16:10:28;;;;;;;0.10;0.10;;;13.00;72.50;;;;;;6158352;23;20073;-85
2024/01/31 16:12:54;;;;;;;0.10;0.10;;;12.90;72.60;;;;;;6157294;23;20005;-85
2024/01/31 16:15:20;;;;;;;0.05;0.05;;;12.90;72.60;;;;;;6131607;23;20096;-86
2024/01/31 16:17:46;;;;;;;0.00;0.00;;;12.90;72.60;;;;;;6131959;23;20060;-86
2024/01/31 16:20:15;;;;;;;0.10;0.10;;;12.90;72.80;;;;;;6157929;23;20004;-85
2024/01/31 16:22:41;;;;;;;0.10;0.10;;;12.80;72.70;;;;;;6157830;23;20005;-86
2024/01/31 16:25:07;;;;;;;0.10;0.10;;;12.80;72.70;;;;;;6132300;23;20002;-86
2024/01/31 16:27:33;;;;;;;0.00;0.00;;;12.80;72.80;;;;;;6130578;23;20091;-86
2024/01/31 16:29:59;;;;;;;0.00;0.00;;;12.80;72.70;;;;;;6130979;23;20008;-86
2024/01/31 16:32:25;;;;;;;0.00;0.00;;;12.80;73.00;;;;;;6134239;23;20021;-86
2024/01/31 16:34:50;;;;;;;0.00;0.00;;;12.80;73.10;;;;;;6133780;23;20010;-86
2024/01/31 16:37:16;;;;;;;0.00;0.00;;;12.80;73.30;;;;;;6160226;23;20006;-87
2024/01/31 16:39:42;;;;;;;0.00;0.00;;;12.80;73.20;;;;;;6134480;23;20005;-88
2024/01/31 16:42:07;;;;;;;0.10;0.10;;;12.70;73.50;;;;;;6159884;23;20069;-87
2024/01/31 16:44:33;;;;;;;0.00;0.00;;;12.70;73.40;;;;;;6160245;23;20025;-86
2024/01/31 16:47:00;;;;;;;0.05;0.05;;;12.70;73.40;;;;;;6159603;23;20033;-87
2024/01/31 16:49:26;;;;;;;0.10;0.10;;;12.70;73.70;;;;;;6133690;23;20005;-84
2024/01/31 16:51:51;;;;;;;0.10;0.10;;;12.70;73.80;;;;;;6160572;23;20005;-86
2024/01/31 16:54:17;;;;;;;0.00;0.00;;;12.60;73.80;;;;;;6159582;23;20084;-86
2024/01/31 16:56:43;;;;;;;0.10;0.10;;;12.60;73.90;;;;;;6131806;23;20015;-90
2024/01/31 16:59:08;;;;;;;0.00;0.00;;;12.60;74.20;;;;;;6157258;23;20267;-90
2024/01/31 17:01:34;;;;;;;0.10;0.10;;;12.60;74.10;;;;;;6134200;23;20319;-91
2024/01/31 17:04:00;;;;;;;0.10;0.10;;;12.60;74.20;;;;;;6134371;23;20011;-91
2024/01/31 17:06:25;;;;;;;0.00;0.00;;;12.50;74.30;;;;;;6160763;23;20011;-90
2024/01/31 17:08:52;;;;;;;0.10;0.10;;;12.50;74.40;;;;;;6134397;23;20001;-91
2024/01/31 17:11:20;;;;;;;0.10;0.10;;;12.50;74.50;;;;;;6133212;23;20049;-90
2024/01/31 17:13:45;;;;;;;0.10;0.10;;;12.50;74.40;;;;;;6133405;23;20504;-91
2024/01/31 17:16:13;;;;;;;0.00;0.00;;;12.60;74.50;;;;;;6160304;23;20088;-90
2024/01/31 17:18:38;;;;;;;0.10;0.10;;;12.60;74.60;;;;;;6133103;23;20016;-89
2024/01/31 17:21:04;;;;;;;0.10;0.10;;;12.50;74.70;;;;;;6133458;23;20005;-90
2024/01/31 17:23:34;;;;;;;0.03;0.03;;;12.50;74.80;;;;;;6159133;23;20002;-84
2024/01/31 17:26:01;;;;;;;0.10;0.10;;;12.50;74.90;;;;;;6132840;23;20344;-85
2024/01/31 17:28:27;;;;;;;0.10;0.10;;;12.50;75.10;;;;;;6133837;23;20005;-85
2024/01/31 17:30:53;;;;;;;0.10;0.10;;;12.40;75.20;;;;;;6159152;23;20166;-85
2024/01/31 17:33:18;;;;;;;0.10;0.10;;;12.40;75.30;;;;;;6133281;23;20020;-84
2024/01/31 17:35:44;;;;;;;0.05;0.05;;;12.30;75.40;;;;;;6133142;23;20009;-85
2024/01/31 17:38:11;;;;;;;0.00;0.00;;;12.30;75.50;;;;;;6131863;23;20346;-84
2024/01/31 17:40:37;;;;;;;0.08;0.08;;;12.20;75.60;;;;;;6150596;23;20334;-84
2024/01/31 17:43:03;;;;;;;0.00;0.00;;;12.20;75.70;;;;;;6131683;23;20005;-85
2024/01/31 17:45:31;;;;;;;0.10;0.10;;;12.20;75.90;;;;;;6158304;23;19997;-84
2024/01/31 17:47:57;;;;;;;0.00;0.00;;;12.20;75.90;;;;;;6159388;23;19998;-84
2024/01/31 17:50:23;;;;;;;0.10;0.10;;;12.20;76.20;;;;;;6159053;23;20034;-80
2024/01/31 17:52:49;;;;;;;0.00;0.00;;;12.20;76.20;;;;;;6159276;23;20002;-84
2024/01/31 17:55:14;;;;;;;0.10;0.10;;;12.20;76.20;;;;;;6158346;23;20036;-86
2024/01/31 17:57:40;;;;;;;0.10;0.10;;;12.20;76.10;;;;;;6158729;23;20001;-83
2024/01/31 18:00:08;;;;;;;0.05;0.05;;;12.20;76.10;;;;;;6158135;23;20002;-82
2024/01/31 18:02:33;;;;;;;0.10;0.10;;;12.30;76.00;;;;;;6157701;23;20010;-85
2024/01/31 18:04:59;;;;;;;0.10;0.10;;;12.20;75.80;;;;;;6160013;23;20005;-80
2024/01/31 18:07:25;;;;;;;0.00;0.00;;;12.20;75.40;;;;;;6158357;23;20073;-84
2024/01/31 18:09:54;;;;;;;0.10;0.10;;;12.20;75.20;;;;;;6133765;23;20012;-91
2024/01/31 18:12:20;;;;;;;0.05;0.05;;;12.20;75.00;;;;;;6133372;23;20009;-88
2024/01/31 18:14:46;;;;;;;0.03;0.03;;;12.20;75.00;;;;;;6133577;23;20006;-83
2024/01/31 18:17:14;;;;;;;0.10;0.10;;;12.20;74.80;;;;;;6133490;23;20036;-88
2024/01/31 18:19:43;;;;;;;0.10;0.10;;;12.20;74.90;;;;;;6132733;23;20176;-87
2024/01/31 18:22:31;;;;;;;0.10;0.10;;;12.20;74.80;;;;;;6159284;23;20518;-91
2024/01/31 18:25:05;;;;;;;0.10;0.10;;;12.20;74.70;;;;;;6132936;23;20008;-87